Terminal Aerodrome Forecast
Issued by NWS

Home | Current Version | Previous Version | Text Only | Print | Product List | Glossary On
Versions: 1 2 3 4 5 6 7 8 9 10 11 12 13 14 15 16 17 18 19 20 21 22 23 24 25 26 27 28 29 30 31 32 33 34 35
000
FTUS41 KBOX 011728
TAFBAF
TAF
KBAF 011728Z 0118/0218 31012KT P6SM BKN130
     FM012300 00000KT P6SM BKN080
     FM020500 04005KT 2SM -SN OVC030
     FM020700 05006KT 1/2SM SN OVC020
     FM021000 06007KT 1/4SM +SN OVC015
     FM021400 02009KT 1/4SM +SN OVC015=

USA.gov is the U.S. government's official web portal to all federal, state and local government web resources and services.